KD8BMB Weather Reports


Display with metric or nautical units.
time (UTC)temp
F
wind
direction
speed
MPH
gust
MPH
rain 1hr
in
rain 24hr
in
rain mn
in
humidity
%
barometer
mb
20220926032435 51 249 1.0 1.0 0.00 0.02 0.02 96 1003.7
20220926031935 51 248 1.0 1.0 0.00 0.02 0.02 96 1004.0
20220926031434 51 247 0.0 0.0 0.00 0.02 0.02 96 1003.7
20220926030932 51 245 0.0 0.0 0.00 0.02 0.02 96 1003.9
20220926030431 51 284 0.0 0.0 0.00 0.02 0.02 96 1003.9
20220926025931 51 283 0.0 0.0 0.00 0.02 0.02 96 1004.0
20220926025431 51 282 0.0 0.0 0.00 0.02 0.02 95 1004.1
20220926024930 51 236 2.0 2.0 0.00 0.02 0.02 95 1004.2
20220926024430 51 247 0.0 0.0 0.00 0.02 0.02 95 1004.0
20220926023928 51 271 0.0 0.0 0.00 0.02 0.02 94 1003.9
20220926023428 51 237 1.0 1.0 0.00 0.02 0.02 94 1004.3
20220926022927 51 229 0.0 1.0 0.00 0.02 0.02 94 1004.2
20220926022426 51 222 3.0 3.0 0.00 0.02 0.02 94 1004.0
20220926021926 51 286 2.0 2.0 0.00 0.02 0.02 95 1004.0
20220926021425 51 215 3.0 3.0 0.00 0.02 0.02 95 1004.0
20220926020924 51 296 1.0 2.0 0.00 0.02 0.02 95 1003.5
20220926020423 51 255 1.0 1.0 0.00 0.02 0.02 95 1003.7
20220926015921 51 229 2.0 2.0 0.00 0.02 0.02 95 1003.9
20220926015420 51 239 1.0 1.0 0.00 0.02 0.02 94 1003.9
20220926014918 52 246 0.0 1.0 0.00 0.02 0.02 93 1003.6
20220926014418 52 238 1.0 1.0 0.00 0.02 0.02 93 1003.4
20220926013917 52 272 1.0 2.0 0.00 0.02 0.02 93 1003.9
20220926013417 52 232 1.0 1.0 0.00 0.02 0.02 92 1003.7
20220926012916 52 279 2.0 2.0 0.00 0.02 0.02 92 1003.7
20220926012414 53 235 2.0 2.0 0.00 0.02 0.02 92 1004.0
20220926011913 53 251 2.0 2.0 0.00 0.02 0.02 91 1003.9
20220926011413 53 267 1.0 1.0 0.00 0.02 0.02 91 1003.6
20220926010913 53 233 1.0 1.0 0.00 0.02 0.02 91 1004.2
20220926010412 53 243 1.0 1.0 0.00 0.02 0.02 90 1004.0
20220926005912 53 268 3.0 3.0 0.00 0.02 0.02 90 1003.7
20220926005412 53 217 3.0 3.0 0.00 0.02 0.02 90 1003.9
20220926004910 53 261 2.0 3.0 0.00 0.02 0.02 89 1004.0
20220926004409 54 245 1.0 2.0 0.00 0.02 0.02 89 1004.0
20220926003909 54 278 1.0 1.0 0.00 0.02 0.02 88 1003.7
20220926003409 54 242 3.0 3.0 0.00 0.02 0.02 88 1003.9
20220926002909 54 224 2.0 3.0 0.00 0.02 0.02 88 1003.7
20220926002408 54 234 3.0 3.0 0.00 0.02 0.02 87 1003.7
20220926001907 55 257 1.0 1.0 0.00 0.02 0.02 86 1003.6
20220926001406 55 258 1.0 1.0 0.00 0.02 0.02 86 1003.7
20220926000904 55 270 3.0 3.0 0.00 0.02 0.02 85 1003.6
20220926000405 55 270 0.0 1.0 0.00 0.02 0.02 84 1003.7
20220925235903 55 252 5.0 6.0 0.00 0.02 0.02 83 1003.6
20220925235403 55 281 3.0 3.0 0.00 0.02 0.02 83 1004.0
20220925234903 55 228 3.0 3.0 0.00 0.02 0.02 82 1003.9
20220925234401 56 214 4.0 5.0 0.00 0.02 0.02 81 1003.7
20220925233859 56 283 1.0 2.0 0.00 0.02 0.02 81 1003.9
20220925233358 56 267 4.0 5.0 0.00 0.02 0.02 80 1003.7
20220925232859 56 321 3.0 5.0 0.00 0.02 0.02 79 1003.6
20220925232358 56 246 3.0 3.0 0.00 0.02 0.02 79 1003.7
20220925231856 57 285 3.0 5.0 0.00 0.02 0.02 78 1003.7
20220925231356 57 209 4.0 5.0 0.00 0.02 0.02 77 1003.4
20220925230855 57 324 4.0 5.0 0.00 0.02 0.02 76 1003.5
20220925230354 57 252 3.0 3.0 0.00 0.02 0.02 76 1003.5
20220925225854 57 241 3.0 3.0 0.00 0.02 0.02 76 1003.5
20220925225353 58 238 3.0 3.0 0.00 0.02 0.02 76 1003.5
20220925224851 58 304 2.0 3.0 0.00 0.02 0.02 75 1003.2
20220925224349 58 226 4.0 6.0 0.00 0.02 0.02 76 1003.3
20220925223849 59 320 4.0 6.0 0.00 0.02 0.02 76 1003.3
20220925223347 59 228 8.0 9.0 0.00 0.02 0.02 77 1003.3
20220925222846 58 230 3.0 5.0 0.00 0.02 0.02 79 1003.2
20220925222346 58 297 1.0 1.0 0.00 0.02 0.02 79 1003.4
20220925221845 58 297 3.0 5.0 0.00 0.02 0.02 78 1003.3
20220925221344 58 212 3.0 5.0 0.00 0.02 0.02 78 1003.3
20220925220843 58 271 1.0 2.0 0.00 0.02 0.02 79 1003.3
20220925220342 58 307 4.0 6.0 0.00 0.02 0.02 80 1003.1
20220925215840 58 223 5.0 6.0 0.00 0.02 0.02 80 1003.1
20220925215339 58 257 2.0 2.0 0.00 0.02 0.02 80 1003.0
20220925214839 58 226 3.0 3.0 0.00 0.02 0.02 80 1002.9
20220925214338 58 322 2.0 3.0 0.00 0.02 0.02 80 1003.3
20220925213838 58 279 6.0 7.0 0.00 0.02 0.02 79 1002.9
20220925213337 58 226 5.0 7.0 0.00 0.02 0.02 78 1003.0
20220925212837 58 238 1.0 2.0 0.00 0.02 0.02 79 1002.9
20220925212336 58 217 3.0 5.0 0.00 0.02 0.02 78 1003.0
20220925211836 59 287 3.0 5.0 0.00 0.02 0.02 78 1003.0
20220925211334 59 274 5.0 8.0 0.00 0.02 0.02 77 1002.7
20220925210832 58 320 3.0 6.0 0.00 0.02 0.02 77 1003.1
20220925210332 59 267 3.0 5.0 0.00 0.02 0.02 77 1002.9
20220925205831 59 310 4.0 5.0 0.00 0.02 0.02 78 1002.8
20220925205329 59 288 7.0 8.0 0.00 0.02 0.02 79 1002.6
20220925204828 59 294 1.0 2.0 0.00 0.02 0.02 81 1002.8
20220925204325 59 275 0.0 0.0 0.00 0.02 0.02 84 1002.7
20220925203825 60 243 1.0 1.0 0.00 0.02 0.02 84 1002.4
20220925203323 60 256 1.0 2.0 0.00 0.02 0.02 84 1002.5
20220925202823 59 237 4.0 6.0 0.00 0.02 0.02 85 1002.4
20220925202321 59 312 3.0 3.0 0.00 0.02 0.02 86 1002.4
20220925201822 59 351 3.0 6.0 0.00 0.02 0.02 86 1002.6
20220925201320 59 285 1.0 1.0 0.00 0.02 0.02 85 1002.6
20220925200818 59 270 3.0 3.0 0.00 0.02 0.02 85 1002.6
20220925200317 59 236 5.0 6.0 0.00 0.02 0.02 85 1002.7
20220925195816 59 261 3.0 3.0 0.00 0.02 0.02 85 1002.6
20220925195316 59 255 1.0 1.0 0.00 0.02 0.02 85 1002.8
20220925194816 58 273 3.0 3.0 0.00 0.02 0.02 85 1002.5
20220925194314 58 288 3.0 3.0 0.00 0.02 0.02 87 1002.8
20220925193813 58 253 3.0 3.0 0.00 0.02 0.02 86 1002.5
20220925193312 58 274 4.0 5.0 0.00 0.02 0.02 88 1002.7
20220925192812 58 262 2.0 3.0 0.00 0.02 0.02 90 1002.6
20220925192311 57 233 4.0 6.0 0.00 0.02 0.02 92 1002.8
20220925191810 57 222 3.0 5.0 0.00 0.02 0.02 92 1002.8
20220925191308 57 310 1.0 1.0 0.00 0.02 0.02 94 1002.9
20220925190806 57 340 5.0 7.0 0.00 0.02 0.02 93 1003.0
20220925190304 57 356 2.0 2.0 0.00 0.02 0.02 92 1002.7
20220925185803 58 267 5.0 6.0 0.00 0.02 0.02 89 1002.8
20220925185304 60 298 3.0 5.0 0.00 0.02 0.02 84 1002.7
20220925184801 60 264 2.0 3.0 0.00 0.02 0.02 85 1002.5
20220925184300 59 329 3.0 5.0 0.00 0.02 0.02 86 1002.5
20220925183758 59 297 3.0 3.0 0.00 0.02 0.02 86 1002.5
20220925183258 59 307 5.0 7.0 0.00 0.02 0.02 85 1002.5
20220925182757 59 201 5.0 7.0 0.00 0.02 0.02 85 1002.6
20220925182256 59 239 3.0 3.0 0.00 0.02 0.02 86 1002.6
20220925181754 59 319 2.0 3.0 0.00 0.02 0.02 85 1002.7
20220925181253 59 353 4.0 6.0 0.00 0.02 0.02 86 1002.5
20220925180753 60 213 3.0 3.0 0.00 0.02 0.02 87 1002.7
20220925180252 60 298 2.0 3.0 0.00 0.02 0.02 86 1002.4
20220925175751 60 240 3.0 5.0 0.00 0.02 0.02 84 1002.4
20220925175250 61 225 2.0 3.0 0.00 0.02 0.02 84 1002.3
20220925174749 61 254 2.0 2.0 0.00 0.02 0.02 81 1002.4
20220925174248 62 264 3.0 5.0 0.00 0.02 0.02 82 1002.5
20220925173746 61 352 2.0 3.0 0.00 0.02 0.02 85 1002.5
20220925173244 61 229 3.0 3.0 0.00 0.02 0.02 85 1002.5
20220925172742 60 220 4.0 6.0 0.00 0.02 0.02 87 1002.5
20220925172241 60 266 3.0 3.0 0.00 0.02 0.02 89 1002.7
20220925171741 59 282 0.0 1.0 0.00 0.02 0.02 92 1002.8
20220925171240 59 278 1.0 1.0 0.00 0.02 0.02 93 1002.5
20220925170738 58 237 5.0 6.0 0.00 0.02 0.02 92 1002.7
20220925170236 58 268 5.0 7.0 0.00 0.02 0.02 92 1002.6
20220925165735 59 225 1.0 2.0 0.00 0.02 0.02 91 1002.7
20220925165232 59 322 3.0 3.0 0.00 0.02 0.02 90 1002.8
20220925164731 59 220 3.0 3.0 0.00 0.02 0.02 90 1002.7
20220925164231 59 264 3.0 5.0 0.00 0.02 0.02 90 1002.7
20220925163729 58 318 2.0 2.0 0.00 0.02 0.02 91 1002.7
20220925163227 58 230 2.0 2.0 0.00 0.02 0.02 92 1002.9
20220925162725 58 278 2.0 3.0 0.00 0.02 0.02 91 1002.9
20220925162226 59 275 3.0 3.0 0.00 0.02 0.02 90 1002.7
20220925161724 59 323 2.0 2.0 0.00 0.02 0.02 88 1002.6
20220925161224 59 291 3.0 3.0 0.00 0.02 0.02 87 1002.6
20220925160724 59 255 2.0 2.0 0.00 0.02 0.02 87 1002.8
20220925160223 59 309 1.0 2.0 0.00 0.02 0.02 87 1002.6
20220925155722 59 240 5.0 7.0 0.00 0.02 0.02 86 1002.7
20220925155220 59 258 4.0 5.0 0.00 0.02 0.02 86 1002.8
20220925154720 59 231 7.0 7.0 0.00 0.02 0.02 86 1002.6
20220925154220 59 267 5.0 6.0 0.00 0.02 0.02 87 1002.9
20220925153720 59 271 3.0 3.0 0.00 0.02 0.02 87 1002.6
20220925153219 59 291 4.0 8.0 0.00 0.02 0.02 87 1002.7
20220925152717 59 278 1.0 2.0 0.00 0.02 0.02 87 1002.7
20220925152215 60 258 4.0 5.0 0.00 0.02 0.02 86 1002.7
20220925151714 59 274 6.0 9.0 0.00 0.02 0.02 86 1002.4
20220925151210 59 295 4.0 5.0 0.00 0.02 0.02 88 1002.3
20220925150710 58 257 4.0 6.0 0.00 0.02 0.02 89 1002.8
20220925150209 58 287 3.0 8.0 0.00 0.02 0.02 90 1002.6
20220925145709 58 269 2.0 2.0 0.00 0.02 0.02 90 1002.6
20220925145207 58 280 2.0 3.0 0.00 0.02 0.02 90 1002.4
20220925144705 58 296 1.0 1.0 0.00 0.02 0.02 90 1002.6
20220925144204 58 335 3.0 3.0 0.00 0.02 0.02 90 1002.6
20220925143704 58 217 3.0 5.0 0.00 0.02 0.02 91 1002.9
20220925143204 57 211 3.0 6.0 0.00 0.02 0.02 92 1002.7
20220925142702 57 279 1.0 2.0 0.00 0.02 0.02 92 1002.8
20220925142202 57 229 2.0 2.0 0.00 0.02 0.02 92 1002.8
20220925141700 57 286 1.0 1.0 0.00 0.02 0.02 94 1002.8
20220925141200 57 245 1.0 2.0 0.00 0.02 0.02 94 1002.7
20220925140658 57 261 1.0 1.0 0.00 0.02 0.02 95 1003.0
20220925140156 57 225 2.0 2.0 0.00 0.02 0.02 95 1002.8
20220925135655 56 301 1.0 2.0 0.00 0.02 0.02 96 1003.0
20220925135155 56 289 1.0 1.0 0.00 0.02 0.02 96 1003.0
20220925134653 56 315 1.0 2.0 0.00 0.02 0.02 97 1002.7
20220925134153 56 305 1.0 1.0 0.00 0.02 0.02 97 1002.9
20220925133652 56 344 1.0 1.0 0.00 0.02 0.02 98 1002.8
20220925133152 55 284 2.0 2.0 0.00 0.02 0.02 98 1002.9
20220925132651 55 280 3.0 3.0 0.00 0.02 0.02 99 1002.8
20220925132149 55 280 1.0 1.0 0.00 0.02 0.02 99 1002.9
20220925131649 55 265 1.0 1.0 0.00 0.02 0.02 99 1003.0
20220925131148 55 284 1.0 1.0 0.00 0.02 0.02 99 1002.7
20220925130648 55 266 1.0 1.0 0.00 0.02 0.02 99 1002.6
20220925130147 55 237 0.0 1.0 0.00 0.02 0.02 99 1002.8
20220925125645 55 275 0.0 1.0 0.00 0.02 0.02 99 1002.8
20220925125143 55 245 2.0 3.0 0.00 0.02 0.02 99 1002.7
20220925124643 55 277 2.0 2.0 0.00 0.02 0.02 99 1002.7
20220925124141 55 273 1.0 1.0 0.00 0.02 0.02 99 1002.8
20220925123641 54 256 1.0 1.0 0.00 0.02 0.02 99 1003.1
20220925123139 54 252 1.0 1.0 0.00 0.02 0.02 99 1002.9
20220925122638 54 263 1.0 1.0 0.00 0.02 0.02 99 1002.9
20220925122138 54 280 1.0 1.0 0.00 0.02 0.02 99 1003.1
20220925121636 54 234 1.0 1.0 0.00 0.02 0.02 99 1003.0
20220925121135 54 295 1.0 1.0 0.00 0.02 0.02 99 1003.2
20220925120633 54 263 1.0 1.0 0.00 0.02 0.02 99 1003.1
20220925120133 54 246 1.0 1.0 0.00 0.02 0.02 99 1002.8
20220925115632 54 289 1.0 1.0 0.00 0.02 0.02 99 1003.0
20220925115131 53 242 2.0 2.0 0.00 0.02 0.02 99 1002.9
20220925114629 53 270 1.0 1.0 0.00 0.02 0.02 99 1003.1
20220925114127 53 254 0.0 1.0 0.00 0.02 0.02 99 1003.1
20220925113625 53 260 0.0 1.0 0.00 0.02 0.02 99 1003.2
20220925113124 53 268 0.0 0.0 0.00 0.02 0.02 99 1002.9
20220925112624 53 272 0.0 0.0 0.00 0.02 0.02 99 1002.8
20220925112122 53 278 0.0 0.0 0.00 0.02 0.02 99 1002.8
20220925111622 53 282 0.0 0.0 0.00 0.02 0.02 99 1002.6
20220925111120 53 282 0.0 0.0 0.00 0.02 0.02 99 1002.8
20220925110618 54 282 0.0 0.0 0.00 0.02 0.02 99 1002.8
20220925110118 54 251 0.0 0.0 0.00 0.02 0.02 99 1002.9
20220925105616 54 246 0.0 1.0 0.00 0.02 0.02 99 1003.0
20220925105115 54 291 0.0 0.0 0.00 0.02 0.02 99 1003.2
20220925104615 54 291 0.0 0.0 0.00 0.02 0.02 99 1003.3
20220925104113 54 265 0.0 0.0 0.00 0.02 0.02 99 1003.0
20220925103611 54 264 0.0 0.0 0.00 0.02 0.02 99 1003.0
20220925103111 54 279 0.0 0.0 0.00 0.02 0.02 99 1003.0
20220925102611 54 265 0.0 1.0 0.00 0.02 0.02 99 1003.0
20220925102109 54 316 0.0 0.0 0.00 0.02 0.02 99 1002.9
20220925101608 54 69 0.0 1.0 0.00 0.02 0.02 99 1002.8
20220925101106 54 340 0.0 0.0 0.00 0.02 0.02 99 1002.6
20220925100606 54 332 0.0 0.0 0.00 0.02 0.02 99 1003.2
20220925100104 54 295 0.0 0.0 0.00 0.02 0.02 99 1002.8
20220925095603 54 274 0.0 0.0 0.00 0.02 0.02 99 1003.1
20220925095103 54 247 0.0 0.0 0.00 0.02 0.02 99 1003.1
20220925094602 54 247 1.0 1.0 0.00 0.02 0.02 99 1003.0
20220925094101 54 232 0.0 1.0 0.00 0.02 0.02 99 1003.3
20220925093600 54 319 0.0 0.0 0.00 0.02 0.02 99 1003.2
20220925093058 54 320 0.0 0.0 0.00 0.02 0.02 99 1003.4
20220925092556 54 320 0.0 0.0 0.00 0.02 0.02 99 1003.3
20220925092056 54 321 0.0 0.0 0.00 0.02 0.02 99 1003.5
20220925091554 54 264 0.0 0.0 0.00 0.02 0.02 99 1003.3
20220925091052 54 253 0.0 0.0 0.00 0.02 0.02 99 1003.4
20220925090550 54 320 1.0 1.0 0.00 0.02 0.02 99 1003.4
20220925090050 54 315 0.0 0.0 0.00 0.02 0.02 99 1003.2
20220925085548 54 318 2.0 2.0 0.00 0.02 0.02 99 1003.4
20220925085047 54 327 2.0 2.0 0.00 0.02 0.02 99 1003.6
20220925084545 54 285 0.0 1.0 0.00 0.02 0.02 99 1003.5
20220925084043 54 233 3.0 3.0 0.00 0.02 0.02 99 1003.6
20220925083541 54 259 0.0 0.0 0.00 0.02 0.02 99 1003.5
20220925083040 54 272 0.0 1.0 0.00 0.02 0.02 99 1004.0
20220925082538 54 297 0.0 0.0 0.00 0.02 0.02 99 1003.9
20220925082036 54 303 0.0 1.0 0.00 0.02 0.02 99 1003.9
20220925081535 54 233 0.0 0.0 0.00 0.02 0.02 99 1004.0
20220925081034 54 272 0.0 0.0 0.00 0.02 0.02 99 1004.0
20220925080532 54 282 0.0 0.0 0.00 0.02 0.02 99 1004.1
20220925080031 54 260 0.0 0.0 0.00 0.02 0.02 99 1004.1
20220925075530 54 256 1.0 1.0 0.00 0.02 0.02 99 1004.1
20220925075028 54 245 0.0 0.0 0.00 0.02 0.02 99 1003.9
20220925074526 54 253 0.0 0.0 0.00 0.02 0.02 99 1004.0
20220925074024 54 259 0.0 0.0 0.00 0.02 0.02 99 1004.3
20220925073523 54 259 0.0 0.0 0.00 0.02 0.02 99 1004.3
20220925073022 54 259 0.0 0.0 0.00 0.02 0.02 99 1004.4
20220925072521 54 258 0.0 1.0 0.00 0.02 0.02 99 1004.5
20220925072019 54 264 0.0 0.0 0.04 0.02 0.02 99 1004.2
20220925071517 54 272 0.0 0.0 0.04 0.02 0.02 99 1004.6
20220925071016 54 236 1.0 1.0 0.07 0.01 0.01 99 1004.6
20220925070514 54 239 0.0 0.0 0.07 0.01 0.01 99 1004.6
20220925070012 54 272 0.0 0.0 0.00 0.00 0.00 99 1004.8
20220925065512 54 257 0.0 0.0 0.00 0.00 0.00 99 1004.8
20220925065010 54 270 0.0 0.0 0.00 0.00 0.00 99 1004.6
20220925064509 54 302 0.0 0.0 0.00 0.00 0.00 99 1004.7
20220925064010 54 302 0.0 0.0 0.00 0.00 0.00 99 1004.8
20220925063508 54 302 0.0 0.0 0.00 0.00 0.00 99 1004.8
20220925063007 54 302 0.0 0.0 0.00 0.00 0.00 99 1004.8
20220925062505 53 302 0.0 0.0 0.00 0.00 0.00 99 1004.9
20220925062005 53 302 0.0 0.0 0.00 0.00 0.00 99 1005.0
20220925061503 53 302 0.0 0.0 0.00 0.00 0.00 99 1004.9
20220925061002 53 302 0.0 0.0 0.00 0.00 0.00 99 1004.9
20220925060501 53 302 0.0 0.0 0.00 0.00 0.00 99 1005.0
20220925055959 53 302 0.0 0.0 0.00 0.00 0.00 99 1005.0
20220925055458 53 302 0.0 0.0 0.00 0.00 0.00 99 1005.0
20220925054958 53 302 0.0 0.0 0.00 0.00 0.00 99 1005.5
20220925054459 53 302 0.0 0.0 0.00 0.00 0.00 99 1005.3
20220925053957 53 302 0.0 0.0 0.00 0.00 0.00 99 1005.3
20220925053456 53 302 0.0 0.0 0.00 0.00 0.00 99 1005.2
20220925052956 53 302 0.0 0.0 0.00 0.00 0.00 99 1005.0
20220925052456 53 302 0.0 0.0 0.00 0.00 0.00 99 1005.3
20220925051956 53 302 0.0 0.0 0.00 0.00 0.00 99 1005.3
20220925051455 53 302 0.0 0.0 0.00 0.00 0.00 99 1005.4
20220925050955 53 302 0.0 0.0 0.00 0.00 0.00 99 1005.8
20220925050455 53 302 0.0 0.0 0.00 0.00 0.00 98 1005.8
20220925045953 53 302 0.0 0.0 0.00 0.00 0.00 98 1005.8
20220925045453 53 301 0.0 0.0 0.00 0.00 0.00 98 1005.8
20220925044951 53 301 0.0 0.0 0.00 0.00 0.00 98 1006.0
20220925044451 53 301 0.0 0.0 0.00 0.00 0.00 98 1005.9
20220925043950 53 301 0.0 0.0 0.00 0.00 0.00 98 1006.1
20220925043448 53 301 0.0 0.0 0.00 0.00 0.00 98 1006.2
20220925042948 54 301 0.0 0.0 0.00 0.00 0.00 98 1006.2
20220925042449 54 301 0.0 0.0 0.00 0.00 0.00 98 1006.4
20220925041947 54 301 0.0 0.0 0.00 0.00 0.00 98 1006.4
20220925041446 54 301 0.0 0.0 0.00 0.00 0.00 98 1006.4
20220925040944 54 302 0.0 0.0 0.00 0.00 0.00 98 1006.4
20220925040444 53 302 0.0 0.0 0.00 0.00 0.00 98 1006.5
20220925035944 54 302 0.0 0.0 0.00 0.02 0.02 98 1006.5
20220925035444 54 302 0.0 0.0 0.00 0.02 0.02 97 1006.6
20220925034943 54 302 0.0 0.0 0.00 0.02 0.02 97 1006.5
20220925034444 54 302 0.0 0.0 0.00 0.02 0.02 97 1006.6
20220925033943 54 302 0.0 0.0 0.00 0.02 0.02 97 1006.4
20220925033442 54 302 0.0 0.0 0.00 0.02 0.02 97 1006.9
20220925032942 54 302 0.0 0.0 0.00 0.02 0.02 97 1006.8